METAR Data
IDs: Format: Raw Decoded Include TAF

Data at: 1819 UTC 16 Oct 2021

KELA 161815Z AUTO 03016G21KT 10SM CLR 22/05 A3028 RMK AO2 T02210049
KELA 161755Z AUTO 03013G22KT 10SM CLR 22/06 A3029 RMK AO2 T02220057 10222 20146
KELA 161735Z AUTO 04014G19KT 10SM CLR 22/05 A3030 RMK AO2 T02160050
KELA 161715Z AUTO 04014G20KT 10SM CLR 21/05 A3030 RMK AO2 T02140053
KELA 161655Z AUTO 04018G23KT 10SM CLR 21/05 A3031 RMK AO2 T02110053
KELA 161635Z AUTO 05015G22KT 10SM CLR 21/06 A3032 RMK AO2 T02080058
KELA 161615Z AUTO 04016G22KT 10SM CLR 20/06 A3032 RMK AO2 T02030056
KELA 161555Z AUTO 04017G24KT 10SM CLR 20/06 A3032 RMK AO2 T02010060
KELA 161535Z AUTO 04012G20KT 10SM CLR 20/07 A3032 RMK AO2 T01970066
KELA 161515Z AUTO 04014G19KT 10SM CLR 19/07 A3032 RMK AO2 T01900073
KELA 161455Z AUTO 05012G20KT 10SM CLR 18/08 A3032 RMK AO2 T01830077
KELA 161435Z AUTO 04013G18KT 10SM CLR 18/08 A3031 RMK AO2 T01760082
KELA 161415Z AUTO 03013G17KT 10SM CLR 17/08 A3030 RMK AO2 T01700084
KELA 161355Z AUTO 03012G18KT 10SM CLR 16/09 A3030 RMK AO2 T01630085
KELA 161335Z AUTO 02010KT 10SM CLR 16/09 A3029 RMK AO2 T01580087
KELA 161315Z AUTO 02009KT 10SM CLR 15/09 A3028 RMK AO2 T01520087
KELA 161255Z AUTO 02009KT 10SM CLR 15/09 A3028 RMK AO2 T01460087
KELA 161235Z AUTO 01008KT 10SM CLR 15/09 A3027 RMK AO2 T01460087
KELA 161215Z AUTO 02009KT 10SM CLR 15/09 A3026 RMK AO2 T01500087
KELA 161155Z AUTO 02010G14KT 10SM CLR 15/09 A3025 RMK AO2 T01510089 10202 20151
KELA 161135Z AUTO 02008KT 10SM CLR 15/09 A3025 RMK AO2 T01520089
KELA 161115Z AUTO 02010KT 10SM CLR 15/09 A3024 RMK AO2 T01540088
KELA 161055Z AUTO 02008KT 10SM CLR 16/09 A3024 RMK AO2 T01570088
KELA 161035Z AUTO 02010KT 10SM CLR 16/09 A3023 RMK AO2 T01600090
KELA 161015Z AUTO 01010G14KT 10SM CLR 16/09 A3022 RMK AO2 T01620090
KELA 160955Z AUTO 02011G17KT 10SM CLR 17/09 A3021 RMK AO2 T01650092
KELA 160935Z AUTO 02012G18KT 10SM CLR 17/09 A3020 RMK AO2 T01700092
KELA 160915Z AUTO 02012G17KT 10SM CLR 17/09 A3019 RMK AO2 T01710092
KELA 160855Z AUTO 02012G17KT 10SM CLR 18/09 A3018 RMK AO2 T01750093
KELA 160835Z AUTO 02011G17KT 10SM CLR 18/10 A3018 RMK AO2 T01780095
KELA 160815Z AUTO 02013G17KT 10SM CLR 18/10 A3017 RMK AO2 T01810096
KELA 160755Z AUTO 02013G16KT 10SM CLR 19/10 A3017 RMK AO2 T01850098
KELA 160735Z AUTO 02011G18KT 10SM CLR 19/10 A3017 RMK AO2 T01860101
KELA 160715Z AUTO 02014G21KT 10SM CLR 19/10 A3017 RMK AO2 T01900101
KELA 160655Z AUTO 02013G18KT 10SM CLR 19/11 A3017 RMK AO2 T01920108
KELA 160635Z AUTO 02013G19KT 10SM CLR 20/12 A3017 RMK AO2 T01950115
KELA 160615Z AUTO 02012G20KT 10SM CLR 20/13 A3016 RMK AO2 T02000125
KELA 160555Z AUTO 02012G19KT 10SM CLR 20/13 A3015 RMK AO2 T02020131 10267 20202 403250202
KELA 160535Z AUTO 01013G18KT 10SM CLR 21/14 A3015 RMK AO2 T02050140
KELA 160515Z AUTO 02011G16KT 10SM CLR 21/15 A3015 RMK AO2 T02080145
KELA 160455Z AUTO 01010G17KT 10SM CLR 21/15 A3015 RMK AO2 T02100152
KELA 160435Z AUTO 36011G16KT 10SM CLR 21/16 A3013 RMK AO2 T02130159
KELA 160415Z AUTO 36009G14KT 10SM CLR 22/16 A3013 RMK AO2 T02170161
KELA 160355Z AUTO 36009G15KT 10SM CLR 22/16 A3012 RMK AO2 T02200162
KELA 160335Z AUTO 36009G17KT 10SM CLR 22/16 A3011 RMK AO2 T02240162
KELA 160315Z AUTO 36011G20KT 10SM CLR 23/17 A3010 RMK AO2 T02260165
KELA 160255Z AUTO 36010G20KT 10SM CLR 23/17 A3008 RMK AO2 T02300167
KELA 160235Z AUTO 36011G18KT 10SM CLR 23/17 A3007 RMK AO2 T02320170
KELA 160215Z AUTO 36011G17KT 10SM CLR 24/18 A3005 RMK AO2 T02350177
KELA 160155Z AUTO 35008G15KT 10SM CLR 24/18 A3003 RMK AO2 T02360182
KELA 160135Z AUTO 35010G18KT 10SM CLR 24/18 A3003 RMK AO2 T02400184
KELA 160115Z AUTO 35009KT 10SM CLR 24/18 A3002 RMK AO2 T02440184
KELA 160055Z AUTO 36008G15KT 10SM CLR 25/19 A3002 RMK AO2 T02460186
KELA 160035Z AUTO 36010G14KT 10SM CLR 25/19 A3000 RMK AO2 T02500186
KELA 160015Z AUTO 35010G15KT 10SM CLR 26/19 A2999 RMK AO2 T02550187
KELA 152355Z AUTO 35011G17KT 10SM CLR 27/20 A2997 RMK AO2 T02690204 10325 20269
KELA 152335Z AUTO 35009G15KT 10SM SCT049 28/22 A2995 RMK AO2 T02750224
KELA 152315Z AUTO 35009G15KT 10SM SCT049 SCT060 29/23 A2994 RMK AO2 T02880225
KELA 152255Z AUTO 36005KT 10SM SCT047 SCT055 30/22 A2993 RMK AO2 T03010223
KELA 152235Z AUTO 01008KT 10SM CLR 32/22 A2992 RMK AO2 T03170223
KELA 152215Z AUTO 34005KT 10SM CLR 32/22 A2991 RMK AO2 T03200220
KELA 152155Z AUTO 33006KT 10SM SCT043 32/22 A2991 RMK AO2 T03210219
KELA 152135Z AUTO 34005KT 10SM SCT043 32/22 A2991 RMK AO2 T03230222
KELA 152115Z AUTO 36005KT 10SM SCT040 32/23 A2991 RMK AO2 T03200226
KELA 152055Z AUTO 33003KT 10SM BKN038 32/23 A2991 RMK AO2 T03170233
KELA 152035Z AUTO 28004KT 10SM SCT040 SCT080 SCT100 32/23 A2991 RMK AO2 T03210228
KELA 152015Z AUTO 32005KT 10SM SCT040 SCT055 SCT070 31/23 A2991 RMK AO2 T03100230
KELA 151955Z AUTO 27004KT 10SM -RA SCT055 SCT070 BKN110 29/25 A2991 RMK AO2 T02880245
KELA 151935Z AUTO 29008KT 10SM SCT038 SCT055 BKN110 32/23 A2992 RMK AO2 T03190231
KELA 151915Z AUTO 26007KT 10SM SCT065 SCT070 SCT090 32/24 A2992 RMK AO2 T03170236
KELA 151855Z AUTO 28004KT 10SM SCT025 SCT035 BKN065 31/24 A2993 RMK AO2 T03060240
KELA 151835Z AUTO 29003KT 10SM SCT024 BKN029 BKN036 30/25 A2994 RMK AO2 T03020245
KELA 151815Z AUTO 22004KT 10SM BKN026 BKN033 BKN050 31/25 A2995 RMK AO2 T03050254
KELA 151755Z AUTO 23004KT 10SM SCT018 SCT025 SCT043 30/25 A2995 RMK AO2 T03020254 10307 20235
KELA 151735Z AUTO 29003KT 10SM -RA SCT018 BKN041 OVC120 29/26 A2996 RMK AO2 T02880255
KELA 151715Z AUTO 22006KT 10SM SCT019 BKN050 BKN120 31/25 A2996 RMK AO2 T03070252
KELA 151655Z AUTO 24006KT 10SM SCT019 SCT023 BKN050 30/25 A2996 RMK AO2 T02960249
KELA 151635Z AUTO 22005KT 10SM SCT120 30/26 A2997 RMK AO2 T03010255
KELA 151615Z AUTO 21007KT 10SM SCT016 SCT025 SCT030 29/25 A2997 RMK AO2 T02920249
KELA 151555Z AUTO 22004KT 10SM SCT012 BKN018 BKN065 29/25 A2997 RMK AO2 T02880253
KELA 151535Z AUTO 25004KT 10SM BKN012 BKN018 OVC026 28/26 A2997 RMK AO2 T02760255
KELA 151515Z AUTO 21005KT 10SM BKN008 BKN018 BKN036 27/26 A2997 RMK AO2 T02690261
KELA 151455Z AUTO 23005KT 10SM SCT004 BKN010 26/26 A2996 RMK AO2 T02640259
KELA 151435Z AUTO 19003KT 10SM BKN004 26/26 A2994 RMK AO2 T02610257
KELA 151415Z AUTO 17003KT 7SM BKN002 BKN013 26/25 A2994 RMK AO2 T02560251
KELA 151355Z AUTO 00000KT 1/2SM FG OVC002 25/24 A2993 RMK AO2 T02470243
KELA 151335Z AUTO 00000KT 1/4SM FG OVC002 24/24 A2993 RMK AO2 T02420238
KELA 151315Z AUTO 00000KT M1/4SM FG OVC002 24/24 A2992 RMK AO2 T02400236
KELA 151255Z AUTO 00000KT M1/4SM FG OVC002 24/23 A2991 RMK AO2 T02370233
KELA 151235Z AUTO 00000KT M1/4SM FG OVC002 24/23 A2990 RMK AO2 T02350231
KELA 151215Z AUTO 00000KT 1/4SM FG OVC002 24/23 A2990 RMK AO2 T02370233
KELA 151155Z AUTO 00000KT 1/4SM FG OVC002 24/24 A2990 RMK AO2 70113 T02380235 10238 20232
KELA 151135Z AUTO 00000KT 1/4SM FG OVC002 24/23 A2989 RMK AO2 T02370233
KELA 151115Z AUTO 00000KT 1/4SM FG OVC002 24/23 A2989 RMK AO2 T02370232
KELA 151055Z AUTO 00000KT 1/4SM FG OVC002 24/23 A2988 RMK AO2 T02350230
KELA 151035Z AUTO 00000KT 1/2SM FG OVC002 24/23 A2988 RMK AO2 T02350231
KELA 151015Z AUTO 00000KT 1/2SM FG OVC002 24/23 A2988 RMK AO2 T02360232
KELA 150955Z AUTO 00000KT 3/4SM BR OVC002 24/23 A2988 RMK AO2 T02360232
KELA 150935Z AUTO 00000KT 1/2SM FG OVC002 24/23 A2987 RMK AO2 T02350230
KELA 150915Z AUTO 00000KT 1/2SM FG BKN002 OVC023 24/23 A2987 RMK AO2 T02350230
KELA 150855Z AUTO 00000KT 1/2SM FG BKN002 BKN007 OVC023 23/23 A2987 RMK AO2 T02330230
KELA 150835Z AUTO 00000KT 1/4SM FG OVC002 23/23 A2988 RMK AO2 T02320227
KELA 150815Z AUTO 00000KT 1/4SM FG OVC002 23/23 A2988 RMK AO2 T02320227
KELA 150755Z AUTO 00000KT 1/4SM FG OVC002 23/23 A2988 RMK AO2 T02320227
KELA 150735Z AUTO 00000KT 1/4SM FG OVC002 23/23 A2988 RMK AO2 T02330228
KELA 150715Z AUTO 00000KT 1/4SM FG OVC002 23/23 A2988 RMK AO2 T02330228
KELA 150655Z AUTO 00000KT 1 1/4SM BR OVC002 24/23 A2988 RMK AO2 T02350230
KELA 150635Z AUTO 00000KT 3SM BR SCT002 OVC034 24/23 A2988 RMK AO2 T02350230